createdAt,value
2018-12-04T00:00:00.626Z,650.8
2018-12-04T00:01:02.787Z,650.1
2018-12-04T00:02:05.209Z,650.4
2018-12-04T00:03:07.343Z,650.5
2018-12-04T00:04:09.761Z,649.6
2018-12-04T00:05:12.186Z,649.1
2018-12-04T00:06:14.328Z,649.7
2018-12-04T00:07:16.483Z,649.3
2018-12-04T00:08:18.339Z,649.3
2018-12-04T00:09:20.491Z,649.1
2018-12-04T00:10:22.642Z,649
2018-12-04T00:11:24.797Z,649.2
2018-12-04T00:12:27.217Z,648.3
2018-12-04T00:13:29.378Z,648.4
2018-12-04T00:14:31.528Z,648.2
2018-12-04T00:15:33.990Z,648.5
2018-12-04T00:16:36.407Z,648.3
2018-12-04T00:17:38.575Z,648.5
2018-12-04T00:18:40.997Z,648
2018-12-04T00:19:43.423Z,649.1
2018-12-04T00:20:45.309Z,648.6
2018-12-04T00:21:47.736Z,648.5
2018-12-04T00:22:49.903Z,648.5
2018-12-04T00:23:52.026Z,648.1
2018-12-04T00:24:53.918Z,647.5
2018-12-04T00:25:56.063Z,647.6
2018-12-04T00:26:58.207Z,648
2018-12-04T00:28:00.645Z,648.5
2018-12-04T00:29:03.074Z,647.3
2018-12-04T00:30:04.928Z,647.5
2018-12-04T00:31:07.098Z,647.9
2018-12-04T00:32:09.531Z,647
2018-12-04T00:33:11.687Z,647.4
2018-12-04T00:34:14.116Z,647.2
2018-12-04T00:35:16.010Z,647.1
2018-12-04T00:36:18.173Z,647.2
2018-12-04T00:37:20.323Z,646.9
2018-12-04T00:38:22.747Z,647.3
2018-12-04T00:39:24.917Z,647.2
2018-12-04T00:40:27.346Z,646.8
2018-12-04T00:41:29.774Z,646.5
2018-12-04T00:42:32.197Z,646.2
2018-12-04T00:43:34.623Z,646.8
2018-12-04T00:44:37.055Z,646.5
2018-12-04T00:45:39.487Z,646.7
2018-12-04T00:46:41.903Z,646.4
2018-12-04T00:47:44.061Z,645.9
2018-12-04T00:48:46.496Z,646.2
2018-12-04T00:49:48.933Z,645.6
2018-12-04T00:50:51.065Z,646
2018-12-04T00:51:53.496Z,646
2018-12-04T00:52:55.937Z,645.9
2018-12-04T00:53:58.353Z,645.6
2018-12-04T00:55:00.234Z,645.9
2018-12-04T00:56:02.665Z,645.6
2018-12-04T00:57:05.079Z,645.6
2018-12-04T00:58:07.238Z,644.6
2018-12-04T00:59:09.430Z,644.4
2018-12-04T01:00:11.890Z,644.6
2018-12-04T01:01:13.775Z,644.1
2018-12-04T01:02:15.918Z,644.3
2018-12-04T01:03:18.342Z,643.6
2018-12-04T01:04:20.773Z,643.6
2018-12-04T01:05:23.205Z,643.5
2018-12-04T01:06:25.630Z,643.2
2018-12-04T01:07:28.055Z,643.2
2018-12-04T01:08:30.467Z,642.6
2018-12-04T01:09:32.894Z,643.1
2018-12-04T01:10:34.770Z,642
2018-12-04T01:11:36.622Z,641.9
2018-12-04T01:12:39.036Z,641.6
2018-12-04T01:13:40.897Z,641.9
2018-12-04T01:14:43.056Z,641.5
2018-12-04T01:15:45.207Z,641.1
2018-12-04T01:16:47.625Z,641.1
2018-12-04T01:17:49.797Z,640.6
2018-12-04T01:18:51.966Z,640.2
2018-12-04T01:19:54.388Z,640.1
2018-12-04T01:20:56.532Z,640.2
2018-12-04T01:21:58.674Z,640.3
2018-12-04T01:23:01.097Z,639.8
2018-12-04T01:24:03.233Z,640
2018-12-04T01:25:05.667Z,640.3
2018-12-04T01:26:08.089Z,640.6
2018-12-04T01:27:10.513Z,639.4
2018-12-04T01:28:12.941Z,640.1
2018-12-04T01:29:15.369Z,639.3
2018-12-04T01:30:17.789Z,639.8
2018-12-04T01:31:19.701Z,639.9
2018-12-04T01:32:21.546Z,640.7
2018-12-04T01:33:23.727Z,639.9
2018-12-04T01:34:26.145Z,639.9
2018-12-04T01:35:28.567Z,639.6
2018-12-04T01:36:30.983Z,639.5
2018-12-04T01:37:33.147Z,639.5
2018-12-04T01:38:35.612Z,639.7
2018-12-04T01:39:38.033Z,639.7
2018-12-04T01:40:40.447Z,639.6
2018-12-04T01:41:42.597Z,639.5
2018-12-04T01:42:45.019Z,640.1
2018-12-04T01:43:46.908Z,640.2
2018-12-04T01:44:49.037Z,639.9
2018-12-04T01:45:51.467Z,640.5
2018-12-04T01:46:53.895Z,640
2018-12-04T01:47:56.319Z,640.1
2018-12-04T01:48:58.737Z,640.1
2018-12-04T01:50:01.158Z,639.6
2018-12-04T01:51:03.576Z,640.6
2018-12-04T01:52:05.728Z,640.4
2018-12-04T01:53:07.599Z,639.9
2018-12-04T01:54:10.022Z,640
2018-12-04T01:55:12.450Z,640.1
2018-12-04T01:56:14.309Z,640
2018-12-04T01:57:16.464Z,639.8
2018-12-04T01:58:18.887Z,639.8
2018-12-04T01:59:20.772Z,640.1
2018-12-04T02:00:23.193Z,639.6
2018-12-04T02:01:25.655Z,639.1
2018-12-04T02:02:27.543Z,639.6
2018-12-04T02:03:29.983Z,639.2
2018-12-04T02:04:31.848Z,638.6
2018-12-04T02:05:33.988Z,638.9
2018-12-04T02:06:36.134Z,638.2
2018-12-04T02:07:38.278Z,638.2
2018-12-04T02:08:40.161Z,638.8
2018-12-04T02:09:42.589Z,638.1
2018-12-04T02:10:45.007Z,638.6
2018-12-04T02:11:47.186Z,639.2
2018-12-04T02:12:49.611Z,638.7
2018-12-04T02:13:51.746Z,638.9
2018-12-04T02:14:53.916Z,638.7
2018-12-04T02:15:56.331Z,638.5
2018-12-04T02:16:58.463Z,638.7
2018-12-04T02:18:00.317Z,638.3
2018-12-04T02:19:02.773Z,638.4
2018-12-04T02:20:04.641Z,638.6
2018-12-04T02:21:07.297Z,638.4
2018-12-04T02:22:09.726Z,638.7
2018-12-04T02:23:12.173Z,639.5
2018-12-04T02:24:14.317Z,639
2018-12-04T02:25:16.747Z,639
2018-12-04T02:26:19.168Z,639
2018-12-04T02:27:21.027Z,639
2018-12-04T02:28:23.451Z,639.2
2018-12-04T02:29:25.594Z,638.7
2018-12-04T02:30:28.027Z,638.6
2018-12-04T02:31:30.165Z,638.7
2018-12-04T02:32:32.314Z,638.5
2018-12-04T02:33:34.743Z,638.5
2018-12-04T02:34:37.164Z,639
2018-12-04T02:35:39.057Z,638.4
2018-12-04T02:36:41.484Z,638.6
2018-12-04T02:37:43.628Z,637.9
2018-12-04T02:38:46.044Z,637.6
2018-12-04T02:39:47.931Z,638.2
2018-12-04T02:40:50.339Z,638.8
2018-12-04T02:41:52.486Z,638.5
2018-12-04T02:42:54.918Z,638.5
2018-12-04T02:43:57.348Z,638.2
2018-12-04T02:44:58.953Z,638.3
2018-12-04T02:46:01.373Z,638.5
2018-12-04T02:47:03.547Z,638.5
2018-12-04T02:48:05.434Z,638.2
2018-12-04T02:49:07.862Z,637.8
2018-12-04T02:50:10.277Z,638.1
2018-12-04T02:51:12.706Z,638
2018-12-04T02:52:15.128Z,638
2018-12-04T02:53:17.269Z,638.3
2018-12-04T02:54:19.410Z,639
2018-12-04T02:55:21.568Z,638.2
2018-12-04T02:56:23.727Z,638.1
2018-12-04T02:57:25.897Z,638.6
2018-12-04T02:58:28.042Z,638
2018-12-04T02:59:30.465Z,638.3
2018-12-04T03:00:32.891Z,638.6
2018-12-04T03:01:35.035Z,638.2
2018-12-04T03:02:37.186Z,638.5
2018-12-04T03:03:39.604Z,638.7
2018-12-04T03:04:41.766Z,637.7
2018-12-04T03:05:43.655Z,638.4
2018-12-04T03:06:46.083Z,637.8
2018-12-04T03:07:48.513Z,637.8
2018-12-04T03:08:50.668Z,637.5
2018-12-04T03:09:53.118Z,637.5
2018-12-04T03:10:55.541Z,637.6
2018-12-04T03:11:57.744Z,637.3
2018-12-04T03:13:00.184Z,637.8
2018-12-04T03:14:02.336Z,637.5
2018-12-04T03:15:04.208Z,637.7
2018-12-04T03:16:06.644Z,637.5
2018-12-04T03:17:08.788Z,637.1
2018-12-04T03:18:10.918Z,636.9
2018-12-04T03:19:13.074Z,637
2018-12-04T03:20:15.227Z,636.8
2018-12-04T03:21:17.385Z,636.6
2018-12-04T03:22:19.540Z,636.4
2018-12-04T03:23:21.969Z,635.5
2018-12-04T03:24:24.118Z,636.6
2018-12-04T03:25:26.548Z,636.3
2018-12-04T03:26:28.409Z,635.4
2018-12-04T03:27:30.838Z,635.8
2018-12-04T03:28:33.268Z,635.9
2018-12-04T03:29:35.714Z,635.9
2018-12-04T03:30:38.132Z,635.1
2018-12-04T03:31:40.288Z,635
2018-12-04T03:32:42.432Z,635.1
2018-12-04T03:33:44.856Z,635
2018-12-04T03:34:47.278Z,634.8
2018-12-04T03:35:49.699Z,634.8
2018-12-04T03:36:52.131Z,635
2018-12-04T03:37:54.556Z,634.4
2018-12-04T03:38:57.073Z,633.8
2018-12-04T03:39:59.489Z,634.6
2018-12-04T03:41:01.630Z,634.1
2018-12-04T03:42:04.057Z,634.2
2018-12-04T03:43:06.478Z,633.8
2018-12-04T03:44:08.916Z,633.5
2018-12-04T03:45:11.048Z,633.6
2018-12-04T03:46:13.476Z,633.7
2018-12-04T03:47:15.335Z,633.2
2018-12-04T03:48:17.773Z,633.4
2018-12-04T03:49:19.658Z,633.4
2018-12-04T03:50:22.090Z,632.8
2018-12-04T03:51:24.516Z,633.1
2018-12-04T03:52:26.380Z,633
2018-12-04T03:53:27.970Z,632.6
2018-12-04T03:54:30.399Z,632.8
2018-12-04T03:55:32.825Z,632.9
2018-12-04T03:56:35.001Z,632.7
2018-12-04T03:57:37.427Z,633.1
2018-12-04T03:58:39.304Z,632.6
2018-12-04T03:59:41.183Z,632.7
2018-12-04T04:00:43.069Z,632.1
2018-12-04T04:01:45.233Z,632.3
2018-12-04T04:02:47.657Z,631.9
2018-12-04T04:03:49.825Z,631.9
2018-12-04T04:04:52.257Z,631.9
2018-12-04T04:05:54.408Z,631.8
2018-12-04T04:06:56.275Z,631.9
2018-12-04T04:07:58.136Z,632
2018-12-04T04:09:00.559Z,632.1
2018-12-04T04:10:02.979Z,631.9
2018-12-04T04:11:05.396Z,631.7
2018-12-04T04:12:06.987Z,631.1
2018-12-04T04:13:09.133Z,631.2
2018-12-04T04:14:11.013Z,631.2
2018-12-04T04:15:12.902Z,631.7
2018-12-04T04:16:15.325Z,631.1
2018-12-04T04:17:17.757Z,631.1
2018-12-04T04:18:19.948Z,630.8
2018-12-04T04:19:22.108Z,630.6
2018-12-04T04:20:24.535Z,631
2018-12-04T04:21:26.956Z,630.7
2018-12-04T04:22:29.092Z,630.5
2018-12-04T04:23:31.239Z,630.6
2018-12-04T04:24:32.834Z,630.7
2018-12-04T04:25:34.679Z,630
2018-12-04T04:26:37.107Z,630.3
2018-12-04T04:27:39.265Z,630.7
2018-12-04T04:28:41.691Z,630.1
2018-12-04T04:29:44.120Z,629.9
2018-12-04T04:30:46.274Z,630.3
2018-12-04T04:31:48.156Z,630.4
2018-12-04T04:32:50.604Z,630.5
2018-12-04T04:33:53.028Z,630.3
2018-12-04T04:34:54.915Z,630.7
2018-12-04T04:35:57.331Z,630.4
2018-12-04T04:36:59.763Z,630.5
2018-12-04T04:38:02.203Z,630.2
2018-12-04T04:39:04.638Z,629.5
2018-12-04T04:40:07.057Z,629.5
2018-12-04T04:41:09.210Z,629.5
2018-12-04T04:42:11.369Z,629.6
2018-12-04T04:43:13.540Z,629.8
2018-12-04T04:44:15.690Z,629.6
2018-12-04T04:45:17.587Z,629.6
2018-12-04T04:46:19.485Z,629.5
2018-12-04T04:47:22.415Z,629.6
2018-12-04T04:48:24.867Z,629.1
2018-12-04T04:49:27.302Z,629.1
2018-12-04T04:50:29.492Z,629.4
2018-12-04T04:51:31.939Z,628.6
2018-12-04T04:52:33.818Z,629
2018-12-04T04:53:36.248Z,629.1
2018-12-04T04:54:38.410Z,629.1
2018-12-04T04:55:40.613Z,628.4
2018-12-04T04:56:43.051Z,627.9
2018-12-04T04:57:45.476Z,627.2
2018-12-04T04:58:47.637Z,627.3
2018-12-04T04:59:49.791Z,626.8
2018-12-04T05:00:52.236Z,626.9
2018-12-04T05:01:54.132Z,627
2018-12-04T05:02:56.001Z,626.4
2018-12-04T05:03:58.195Z,626.7
2018-12-04T05:05:00.606Z,626.2
2018-12-04T05:06:03.029Z,626.2
2018-12-04T05:07:05.458Z,625.9
2018-12-04T05:08:07.889Z,626
2018-12-04T05:09:10.309Z,625.9
2018-12-04T05:10:12.469Z,626.1
2018-12-04T05:11:14.629Z,625.6
2018-12-04T05:12:17.058Z,625.7
2018-12-04T05:13:19.204Z,625.5
2018-12-04T05:14:21.348Z,625.8
2018-12-04T05:15:23.509Z,626.1
2018-12-04T05:16:25.946Z,625.9
2018-12-04T05:17:28.399Z,625.4
2018-12-04T05:18:30.829Z,625.3
2018-12-04T05:19:33.249Z,625.3
2018-12-04T05:20:35.388Z,625.7
2018-12-04T05:21:37.829Z,625.3
2018-12-04T05:22:40.249Z,624.9
2018-12-04T05:23:42.668Z,625.4
2018-12-04T05:24:45.132Z,625.3
2018-12-04T05:25:47.560Z,624.7
2018-12-04T05:26:49.700Z,625
2018-12-04T05:27:51.849Z,625.3
2018-12-04T05:28:53.997Z,625
2018-12-04T05:29:56.428Z,624.5
2018-12-04T05:30:58.326Z,624.2
2018-12-04T05:32:00.770Z,623.7
2018-12-04T05:33:03.213Z,623.7
2018-12-04T05:34:05.626Z,623.5
2018-12-04T05:35:08.070Z,623.1
2018-12-04T05:36:10.502Z,622.9
2018-12-04T05:37:12.373Z,623.5
2018-12-04T05:38:14.803Z,623.3
2018-12-04T05:39:17.244Z,623.2
2018-12-04T05:40:20.340Z,623.2
2018-12-04T05:41:22.577Z,623.3
2018-12-04T05:42:24.717Z,623.1
2018-12-04T05:43:27.137Z,622.9
2018-12-04T05:44:29.275Z,622.8
2018-12-04T05:45:31.160Z,622.4
2018-12-04T05:46:33.308Z,622.7
2018-12-04T05:47:35.478Z,622.9
2018-12-04T05:48:37.651Z,622
2018-12-04T05:49:40.072Z,622.7
2018-12-04T05:50:41.938Z,622.4
2018-12-04T05:51:44.289Z,622.6
2018-12-04T05:52:46.436Z,623.1
2018-12-04T05:53:48.870Z,622.8
2018-12-04T05:54:51.295Z,623.3
2018-12-04T05:55:53.445Z,622.2
2018-12-04T05:56:55.028Z,622.7
2018-12-04T05:57:57.448Z,621.9
2018-12-04T05:58:59.646Z,622.2
2018-12-04T06:00:01.812Z,622.3
2018-12-04T06:01:04.238Z,622
2018-12-04T06:02:06.413Z,621.9
2018-12-04T06:03:08.303Z,621.7
2018-12-04T06:04:10.460Z,621.6
2018-12-04T06:05:12.645Z,621.1
2018-12-04T06:06:15.067Z,621.2
2018-12-04T06:07:17.492Z,621.1
2018-12-04T06:08:19.927Z,621.1
2018-12-04T06:09:22.076Z,620.6
2018-12-04T06:10:24.208Z,620.6
2018-12-04T06:11:26.636Z,620.6
2018-12-04T06:12:28.534Z,620.5
2018-12-04T06:13:30.127Z,620.8
2018-12-04T06:14:32.315Z,620.4
2018-12-04T06:15:34.236Z,620.4
2018-12-04T06:16:36.398Z,620.4
2018-12-04T06:17:38.556Z,620.2
2018-12-04T06:18:40.705Z,620.1
2018-12-04T06:19:42.857Z,620.1
2018-12-04T06:20:45.308Z,620.2
2018-12-04T06:21:47.731Z,620.4
2018-12-04T06:22:49.877Z,620.1
2018-12-04T06:23:52.046Z,619.5
2018-12-04T06:24:54.196Z,620.3
2018-12-04T06:25:56.627Z,619.8
2018-12-04T06:26:58.495Z,619.4
2018-12-04T06:28:00.904Z,619.8
2018-12-04T06:29:03.096Z,620.1
2018-12-04T06:30:04.987Z,619.5
2018-12-04T06:31:07.138Z,619.5
2018-12-04T06:32:09.292Z,619.5
2018-12-04T06:33:11.740Z,619.2
2018-12-04T06:34:14.163Z,619.7
2018-12-04T06:35:16.585Z,619.7
2018-12-04T06:36:19.026Z,619.6
2018-12-04T06:37:21.443Z,619.2
2018-12-04T06:38:23.585Z,619.7
2018-12-04T06:39:25.467Z,619.4
2018-12-04T06:40:27.343Z,619.2
2018-12-04T06:41:29.767Z,619.3
2018-12-04T06:42:32.187Z,619.3
2018-12-04T06:43:34.619Z,619.5
2018-12-04T06:44:37.267Z,619.2
2018-12-04T06:45:39.712Z,619
2018-12-04T06:46:41.868Z,619
2018-12-04T06:47:43.740Z,618.4
2018-12-04T06:48:45.900Z,618.4
2018-12-04T06:49:48.323Z,618.2
2018-12-04T06:50:50.450Z,618.7
2018-12-04T06:51:52.618Z,618.1
2018-12-04T06:52:54.784Z,619
2018-12-04T06:53:57.206Z,618
2018-12-04T06:54:59.648Z,618.1
2018-12-04T06:56:02.071Z,618.5
2018-12-04T06:57:04.563Z,618.6
2018-12-04T06:58:06.425Z,618
2018-12-04T06:59:08.867Z,617.7
2018-12-04T07:00:10.754Z,617.3
2018-12-04T07:01:12.962Z,617.1
2018-12-04T07:02:15.393Z,616.5
2018-12-04T07:03:17.273Z,616.1
2018-12-04T07:04:19.813Z,616.4
2018-12-04T07:05:22.269Z,616.4
2018-12-04T07:06:24.145Z,616.2
2018-12-04T07:07:26.298Z,616
2018-12-04T07:08:28.732Z,615.5
2018-12-04T07:09:30.898Z,615.6
2018-12-04T07:10:33.328Z,615.8
2018-12-04T07:11:35.487Z,615.2
2018-12-04T07:12:37.644Z,615.4
2018-12-04T07:13:39.814Z,614.9
2018-12-04T07:14:41.962Z,614.9
2018-12-04T07:15:44.120Z,614.6
2018-12-04T07:16:46.271Z,614.7
2018-12-04T07:17:48.427Z,614.5
2018-12-04T07:18:50.576Z,614
2018-12-04T07:19:52.752Z,613.8
2018-12-04T07:20:54.888Z,613.7
2018-12-04T07:21:57.320Z,613.8
2018-12-04T07:22:59.468Z,613.6
2018-12-04T07:24:01.889Z,612.9
2018-12-04T07:25:04.026Z,612.1
2018-12-04T07:26:06.268Z,611.8
2018-12-04T07:27:08.442Z,611.2
2018-12-04T07:28:10.868Z,611.3
2018-12-04T07:29:13.028Z,611.5
2018-12-04T07:30:15.177Z,611
2018-12-04T07:31:17.348Z,610.5
2018-12-04T07:32:19.770Z,610.2
2018-12-04T07:33:22.209Z,610
2018-12-04T07:34:24.084Z,610
2018-12-04T07:35:26.238Z,609.6
2018-12-04T07:36:28.404Z,609.3
2018-12-04T07:37:30.578Z,609.1
2018-12-04T07:38:32.999Z,608.7
2018-12-04T07:39:35.140Z,608.7
2018-12-04T07:40:37.306Z,608.2
2018-12-04T07:41:39.728Z,608.1
2018-12-04T07:42:42.158Z,608.1
2018-12-04T07:43:44.588Z,607.4
2018-12-04T07:44:46.748Z,607.4
2018-12-04T07:45:50.158Z,607.3
2018-12-04T07:46:52.588Z,607.3
2018-12-04T07:47:54.201Z,606.5
2018-12-04T07:48:56.644Z,606.5
2018-12-04T07:49:58.786Z,606.5
2018-12-04T07:51:01.218Z,606.5
2018-12-04T07:52:03.652Z,606.3
2018-12-04T07:53:05.810Z,606.6
2018-12-04T07:54:08.234Z,605.6
2018-12-04T07:55:10.375Z,605.7
2018-12-04T07:56:12.517Z,605.5
2018-12-04T07:57:14.986Z,605.2
2018-12-04T07:58:17.891Z,605.4
2018-12-04T07:59:20.383Z,605.6
2018-12-04T08:00:22.535Z,605.7
2018-12-04T08:01:24.959Z,604.9
2018-12-04T08:02:27.388Z,605.1
2018-12-04T08:03:29.810Z,604.9
2018-12-04T08:04:31.966Z,604.6
2018-12-04T08:05:34.128Z,604.1
2018-12-04T08:06:36.561Z,603.5
2018-12-04T08:07:39.009Z,603.6
2018-12-04T08:08:41.164Z,603.5
2018-12-04T08:09:43.304Z,604.2
2018-12-04T08:10:45.728Z,603.5
2018-12-04T08:11:48.174Z,603.3
2018-12-04T08:12:50.299Z,603.5
2018-12-04T08:13:52.720Z,603.2
2018-12-04T08:14:54.876Z,603
2018-12-04T08:15:56.491Z,602.8
2018-12-04T08:16:58.920Z,602.9
2018-12-04T08:18:00.811Z,602.5
2018-12-04T08:19:02.674Z,602.5
2018-12-04T08:20:04.557Z,602.1
2018-12-04T08:21:06.433Z,602.2
2018-12-04T08:22:08.573Z,602.1
2018-12-04T08:23:10.484Z,601.6
2018-12-04T08:24:12.649Z,601.3
2018-12-04T08:25:14.821Z,601.3
2018-12-04T08:26:16.978Z,600.6
2018-12-04T08:27:19.418Z,601
2018-12-04T08:28:21.844Z,600.4
2018-12-04T08:29:24.013Z,600.1
2018-12-04T08:30:26.158Z,600.2
2018-12-04T08:31:28.596Z,599.6
2018-12-04T08:32:30.751Z,600.7
2018-12-04T08:33:32.896Z,598.7
2018-12-04T08:34:35.059Z,599.1
2018-12-04T08:35:37.478Z,599.3
2018-12-04T08:36:39.904Z,598.6
2018-12-04T08:37:42.338Z,598.4
2018-12-04T08:38:44.491Z,598.7
2018-12-04T08:39:46.907Z,598.7
2018-12-04T08:40:49.034Z,598.2
2018-12-04T08:41:51.186Z,598.6
2018-12-04T08:42:53.612Z,597.6
2018-12-04T08:43:55.755Z,597.4
2018-12-04T08:44:58.178Z,597.6
2018-12-04T08:46:00.596Z,597.4
2018-12-04T08:47:03.024Z,597.3
2018-12-04T08:48:05.153Z,596.7
2018-12-04T08:49:07.592Z,596.9
2018-12-04T08:50:10.022Z,597.2
2018-12-04T08:51:12.453Z,596.4
2018-12-04T08:52:14.861Z,596.6
2018-12-04T08:53:17.284Z,596.1
2018-12-04T08:54:19.427Z,596.4
2018-12-04T08:55:21.588Z,595.8
2018-12-04T08:56:23.757Z,595.6
2018-12-04T08:57:26.179Z,595.7
2018-12-04T08:58:28.328Z,595.5
2018-12-04T08:59:30.488Z,595.1
2018-12-04T09:00:32.359Z,594.7
2018-12-04T09:01:34.508Z,594.2
2018-12-04T09:02:36.647Z,594.2
2018-12-04T09:03:38.794Z,594.5
2018-12-04T09:04:41.218Z,593.5
2018-12-04T09:05:43.655Z,593.2
2018-12-04T09:06:46.211Z,593.5
2018-12-04T09:07:48.642Z,593
2018-12-04T09:08:51.377Z,593.6
2018-12-04T09:09:53.268Z,593
2018-12-04T09:10:55.717Z,593
2018-12-04T09:11:58.137Z,592.9
2018-12-04T09:13:00.292Z,592.3
2018-12-04T09:14:02.454Z,592.4
2018-12-04T09:15:04.877Z,592.5
2018-12-04T09:16:07.326Z,592.2
2018-12-04T09:17:09.187Z,591.4
2018-12-04T09:18:11.616Z,591.8
2018-12-04T09:19:14.112Z,591.4
2018-12-04T09:20:16.644Z,591.6
2018-12-04T09:21:18.605Z,591.4
2018-12-04T09:22:20.618Z,591.4
2018-12-04T09:23:23.175Z,591.2
2018-12-04T09:25:31.518Z,591.2
2018-12-04T09:26:34.006Z,591
2018-12-04T09:27:36.751Z,591.4
2018-12-04T09:28:39.072Z,590.9
2018-12-04T09:29:41.341Z,591.1
2018-12-04T09:30:43.774Z,591.1
2018-12-04T09:31:45.961Z,590.6
2018-12-04T09:32:48.395Z,590.6
2018-12-04T09:33:50.848Z,590.1
2018-12-04T09:34:53.008Z,589.5
2018-12-04T09:35:55.154Z,589.3
2018-12-04T09:36:57.596Z,589.3
2018-12-04T09:37:59.740Z,589
2018-12-04T09:39:02.175Z,588.7
2018-12-04T09:40:04.332Z,588.5
2018-12-04T09:41:06.481Z,588.5
2018-12-04T09:42:08.388Z,588.2
2018-12-04T09:43:10.830Z,588.3
2018-12-04T09:44:13.273Z,587.7
2018-12-04T09:45:15.441Z,588.3
2018-12-04T09:46:17.606Z,587.4
2018-12-04T09:47:19.769Z,587.4
2018-12-04T09:48:21.920Z,587.4
2018-12-04T09:49:24.367Z,587.1
2018-12-04T09:50:26.507Z,586.6
2018-12-04T09:51:28.936Z,586.7
2018-12-04T09:52:31.080Z,586.4
2018-12-04T09:53:33.506Z,586.5
2018-12-04T09:54:35.391Z,587
2018-12-04T09:55:37.546Z,586.9
2018-12-04T09:56:39.698Z,587.4
2018-12-04T09:57:41.842Z,587.4
2018-12-04T09:58:44.288Z,587.2
2018-12-04T09:59:46.726Z,587
2018-12-04T10:00:49.144Z,587.4
2018-12-04T10:01:51.278Z,587.3
2018-12-04T10:02:53.718Z,587.4
2018-12-04T10:03:56.138Z,587.4
2018-12-04T10:04:58.565Z,587.4
2018-12-04T10:06:00.983Z,587.7
2018-12-04T10:07:02.877Z,587.2
2018-12-04T10:08:05.024Z,586.8
2018-12-04T10:09:07.447Z,587
2018-12-04T10:10:09.612Z,586.8
2018-12-04T10:11:11.779Z,586.8
2018-12-04T10:12:13.924Z,587.3
2018-12-04T10:13:15.818Z,587
2018-12-04T10:14:19.202Z,587.3
2018-12-04T10:15:21.717Z,587.4
2018-12-04T10:16:23.856Z,587.2
2018-12-04T10:17:26.002Z,587.7
2018-12-04T10:18:28.271Z,587.1
2018-12-04T10:19:30.695Z,587.3
2018-12-04T10:20:33.140Z,587
2018-12-04T10:21:35.578Z,587.1
2018-12-04T10:22:37.991Z,587.1
2018-12-04T10:23:40.418Z,586.6
2018-12-04T10:24:42.842Z,586.1
2018-12-04T10:25:44.705Z,585.3
2018-12-04T10:26:46.848Z,586.1
2018-12-04T10:27:48.994Z,585.4
2018-12-04T10:28:51.139Z,585.6
2018-12-04T10:29:53.564Z,585.3
2018-12-04T10:30:55.448Z,585.4
2018-12-04T10:31:57.718Z,584.8
2018-12-04T10:33:00.185Z,585.7
2018-12-04T10:34:02.339Z,585.1
2018-12-04T10:35:04.783Z,585.1
2018-12-04T10:36:06.942Z,585.9
2018-12-04T10:37:09.355Z,585.9
2018-12-04T10:38:11.256Z,585.4
2018-12-04T10:39:13.692Z,585.6
2018-12-04T10:40:16.117Z,585.5
2018-12-04T10:41:18.591Z,585.4
2018-12-04T10:42:21.038Z,584.8
2018-12-04T10:43:23.498Z,584.7
2018-12-04T10:44:25.946Z,584.8
2018-12-04T10:45:28.113Z,584.6
2018-12-04T10:46:30.281Z,584.7
2018-12-04T10:47:32.419Z,584.3
2018-12-04T10:48:34.562Z,584.9
2018-12-04T10:49:36.730Z,584.8
2018-12-04T10:50:38.895Z,584.7
2018-12-04T10:51:41.316Z,585.1
2018-12-04T10:52:43.754Z,585
2018-12-04T10:53:45.923Z,585.6
2018-12-04T10:54:48.353Z,584.9
2018-12-04T10:55:50.774Z,585.2
2018-12-04T10:56:52.947Z,584.7
2018-12-04T10:57:55.373Z,585
2018-12-04T10:58:57.545Z,584.9
2018-12-04T10:59:59.974Z,584.4
2018-12-04T11:01:02.412Z,584.4
2018-12-04T11:02:04.836Z,584.2
2018-12-04T11:03:06.981Z,584.6
2018-12-04T11:04:09.116Z,584
2018-12-04T11:05:11.256Z,583.9
2018-12-04T11:06:13.151Z,583.9
2018-12-04T11:07:15.303Z,583.6
2018-12-04T11:08:17.737Z,583.7
2018-12-04T11:09:20.154Z,583.5
2018-12-04T11:10:22.293Z,583.8
2018-12-04T11:11:24.725Z,583.6
2018-12-04T11:12:26.886Z,583.4
2018-12-04T11:13:29.054Z,583.2
2018-12-04T11:14:31.476Z,583
2018-12-04T11:15:33.932Z,583.1
2018-12-04T11:16:36.085Z,582.8
2018-12-04T11:17:38.227Z,583.6
2018-12-04T11:18:40.098Z,583
2018-12-04T11:19:42.272Z,582.4
2018-12-04T11:20:44.700Z,581.8
2018-12-04T11:21:47.205Z,581.7
2018-12-04T11:22:49.614Z,581.8
2018-12-04T11:23:52.045Z,581.4
2018-12-04T11:24:54.461Z,581.6
2018-12-04T11:25:56.632Z,581.7
2018-12-04T11:26:58.520Z,581.9
2018-12-04T11:28:00.116Z,581.3
2018-12-04T11:29:02.549Z,580.8
2018-12-04T11:30:04.434Z,581
2018-12-04T11:31:06.864Z,581
2018-12-04T11:32:09.304Z,581
2018-12-04T11:33:11.216Z,580.9
2018-12-04T11:34:13.365Z,581.5
2018-12-04T11:35:15.246Z,581
2018-12-04T11:36:17.195Z,580.8
2018-12-04T11:37:19.346Z,580.9
2018-12-04T11:38:21.504Z,580.6
2018-12-04T11:39:23.088Z,580.8
2018-12-04T11:40:25.523Z,581
2018-12-04T11:41:28.945Z,580.5
2018-12-04T11:42:30.581Z,581
2018-12-04T11:43:32.190Z,580.9
2018-12-04T11:44:34.630Z,581
2018-12-04T11:45:36.841Z,580.9
2018-12-04T11:46:39.260Z,580.6
2018-12-04T11:47:41.395Z,580.2
2018-12-04T11:48:43.838Z,580.5
2018-12-04T11:49:46.262Z,580.5
2018-12-04T11:50:48.704Z,580.6
2018-12-04T11:51:51.136Z,580.3
2018-12-04T11:52:53.319Z,579.9
2018-12-04T11:53:55.747Z,580.2
2018-12-04T11:54:58.179Z,580.3
2018-12-04T11:56:00.317Z,580.4
2018-12-04T11:57:02.748Z,579.9
2018-12-04T11:58:05.169Z,580.1
2018-12-04T11:59:06.808Z,580.2
2018-12-04T12:00:09.237Z,579.9
2018-12-04T12:01:11.669Z,580
2018-12-04T12:02:13.829Z,580.1
2018-12-04T12:03:15.995Z,580
2018-12-04T12:04:18.163Z,579.5
2018-12-04T12:05:20.047Z,579.4
2018-12-04T12:06:22.466Z,579.6
2018-12-04T12:07:24.907Z,579.8
2018-12-04T12:08:27.052Z,579.6
2018-12-04T12:09:29.487Z,579.6
2018-12-04T12:10:31.930Z,579.4
2018-12-04T12:11:34.386Z,579.4
2018-12-04T12:12:36.806Z,579.1
2018-12-04T12:13:39.229Z,578.9
2018-12-04T12:14:41.394Z,578.7
2018-12-04T12:15:43.825Z,578.4
2018-12-04T12:16:46.270Z,578.1
2018-12-04T12:17:48.400Z,578.1
2018-12-04T12:18:50.280Z,578.2
2018-12-04T12:19:52.720Z,577.6
2018-12-04T12:20:54.877Z,577.4
2018-12-04T12:21:57.006Z,578.2
2018-12-04T12:22:59.161Z,577.8
2018-12-04T12:24:01.327Z,577
2018-12-04T12:25:03.477Z,577.6
2018-12-04T12:26:05.924Z,577
2018-12-04T12:27:08.056Z,577.6
2018-12-04T12:28:10.212Z,577.7
2018-12-04T12:29:12.631Z,577.1
2018-12-04T12:30:14.775Z,576.6
2018-12-04T12:31:17.208Z,576.8
2018-12-04T12:32:19.078Z,577.2
2018-12-04T12:33:20.948Z,576.6
2018-12-04T12:35:27.794Z,576
2018-12-04T12:36:30.214Z,576.2
2018-12-04T12:37:32.370Z,576.2
2018-12-04T12:38:34.788Z,575.8
2018-12-04T12:39:36.948Z,576
2018-12-04T12:40:38.824Z,575.8
2018-12-04T12:41:40.968Z,575.6
2018-12-04T12:42:43.410Z,575.2
2018-12-04T12:43:45.841Z,575.5
2018-12-04T12:44:48.256Z,575.8
2018-12-04T12:45:50.681Z,575.6
2018-12-04T12:46:53.107Z,575.8
2018-12-04T12:47:55.540Z,575.1
2018-12-04T12:48:57.687Z,575.6
2018-12-04T12:49:59.573Z,575.2
2018-12-04T12:51:01.733Z,575.1
2018-12-04T12:52:04.164Z,575.2
2018-12-04T12:53:06.042Z,574.6
2018-12-04T12:54:08.473Z,574.6
2018-12-04T12:55:10.939Z,574.3
2018-12-04T12:56:13.087Z,574.1
2018-12-04T12:57:15.227Z,573.4
2018-12-04T12:58:17.360Z,572.4
2018-12-04T12:59:19.780Z,572.8
2018-12-04T13:00:21.929Z,573.3
2018-12-04T13:01:24.104Z,574
2018-12-04T13:02:26.268Z,573.1
2018-12-04T13:03:28.706Z,573.3
2018-12-04T13:04:30.852Z,573.4
2018-12-04T13:05:33.005Z,572.5
2018-12-04T13:06:35.147Z,572.2
2018-12-04T13:07:37.574Z,573
2018-12-04T13:08:40.007Z,572.2
2018-12-04T13:09:42.473Z,572
2018-12-04T13:10:44.619Z,571.9
2018-12-04T13:11:47.055Z,571.6
2018-12-04T13:12:49.486Z,572
2018-12-04T13:13:51.917Z,571.4
2018-12-04T13:14:54.076Z,571.9
2018-12-04T13:15:55.935Z,571
2018-12-04T13:16:58.369Z,571.1
2018-12-04T13:18:00.795Z,571.7
2018-12-04T13:19:03.221Z,571.8
2018-12-04T13:20:05.695Z,571.6
2018-12-04T13:21:08.125Z,571.2
2018-12-04T13:22:10.293Z,571.2
2018-12-04T13:23:12.731Z,571.2
2018-12-04T13:24:15.173Z,571.1
2018-12-04T13:25:17.604Z,570.9
2018-12-04T13:26:20.016Z,571.2
2018-12-04T13:27:22.439Z,570.7
2018-12-04T13:28:24.317Z,570.3